createdAt,value
2018-10-09T00:00:35.590Z,99.90
2018-10-09T00:03:05.429Z,99.90
2018-10-09T00:05:34.881Z,99.90
2018-10-09T00:08:03.488Z,99.90
2018-10-09T00:10:32.785Z,99.90
2018-10-09T00:15:35.555Z,99.90
2018-10-09T00:18:04.513Z,99.90
2018-10-09T00:20:33.041Z,99.90
2018-10-09T00:23:01.627Z,99.90
2018-10-09T00:25:30.192Z,99.90
2018-10-09T00:27:58.760Z,99.90
2018-10-09T00:30:27.306Z,99.90
2018-10-09T00:32:56.118Z,99.90
2018-10-09T00:35:24.796Z,99.90
2018-10-09T00:38:00.450Z,99.90
2018-10-09T00:40:30.729Z,99.90
2018-10-09T00:42:59.505Z,99.90
2018-10-09T00:45:28.060Z,99.90
2018-10-09T00:47:56.648Z,99.90
2018-10-09T00:50:25.200Z,99.90
2018-10-09T00:52:53.763Z,99.90
2018-10-09T00:55:22.310Z,99.90
2018-10-09T00:57:50.972Z,99.90
2018-10-09T01:00:19.506Z,99.90
2018-10-09T01:02:48.073Z,99.90
2018-10-09T01:05:16.651Z,99.90
2018-10-09T01:07:45.186Z,99.90
2018-10-09T01:10:13.840Z,99.90
2018-10-09T01:12:42.403Z,99.90
2018-10-09T01:15:11.018Z,99.90
2018-10-09T01:17:39.540Z,99.90
2018-10-09T01:20:08.086Z,99.90
2018-10-09T01:22:36.800Z,99.90
2018-10-09T01:25:05.358Z,99.90
2018-10-09T01:27:33.927Z,99.90
2018-10-09T01:30:02.456Z,99.90
2018-10-09T01:32:30.974Z,99.90
2018-10-09T01:34:59.496Z,99.90
2018-10-09T01:37:28.033Z,99.90
2018-10-09T01:39:56.608Z,99.90
2018-10-09T01:42:25.120Z,99.90
2018-10-09T01:44:53.693Z,99.90
2018-10-09T01:47:22.208Z,99.90
2018-10-09T01:49:50.753Z,99.90
2018-10-09T01:52:19.292Z,99.90
2018-10-09T01:54:47.843Z,99.90
2018-10-09T01:57:16.380Z,99.90
2018-10-09T01:59:44.905Z,99.90
2018-10-09T02:02:13.434Z,99.90
2018-10-09T02:04:41.978Z,99.90
2018-10-09T02:07:10.729Z,99.90
2018-10-09T02:09:39.262Z,99.90
2018-10-09T02:12:07.857Z,99.90
2018-10-09T02:14:36.396Z,99.90
2018-10-09T02:17:04.998Z,99.90
2018-10-09T02:19:33.519Z,99.90
2018-10-09T02:22:02.082Z,99.90
2018-10-09T02:24:30.632Z,99.90
2018-10-09T02:26:59.165Z,99.90
2018-10-09T02:29:27.792Z,99.90
2018-10-09T02:31:56.325Z,99.90
2018-10-09T02:34:24.908Z,99.90
2018-10-09T02:36:53.449Z,99.90
2018-10-09T02:39:22.878Z,99.90
2018-10-09T02:41:51.433Z,99.90
2018-10-09T02:44:19.980Z,99.90
2018-10-09T02:46:48.508Z,99.90
2018-10-09T02:49:17.059Z,99.90
2018-10-09T02:51:45.582Z,99.90
2018-10-09T02:54:14.159Z,99.90
2018-10-09T02:56:42.680Z,99.90
2018-10-09T02:59:11.744Z,99.90
2018-10-09T03:01:40.284Z,99.90
2018-10-09T03:04:08.799Z,99.90
2018-10-09T03:06:37.386Z,99.90
2018-10-09T03:09:07.065Z,99.90
2018-10-09T03:11:35.783Z,99.90
2018-10-09T03:14:04.432Z,99.90
2018-10-09T03:16:32.976Z,99.90
2018-10-09T03:19:01.659Z,99.90
2018-10-09T03:21:30.172Z,99.90
2018-10-09T03:23:58.702Z,99.90
2018-10-09T03:26:27.241Z,99.90
2018-10-09T03:28:55.816Z,99.90
2018-10-09T03:31:24.368Z,99.90
2018-10-09T03:33:52.919Z,99.90
2018-10-09T03:36:21.440Z,99.90
2018-10-09T03:38:50.356Z,99.90
2018-10-09T03:41:18.893Z,99.90
2018-10-09T03:43:47.449Z,99.90
2018-10-09T03:46:16.478Z,99.90
2018-10-09T03:48:45.674Z,99.90
2018-10-09T03:51:14.235Z,99.90
2018-10-09T03:53:42.754Z,99.90
2018-10-09T03:56:11.300Z,99.90
2018-10-09T03:58:39.848Z,99.90
2018-10-09T04:01:08.370Z,99.90
2018-10-09T04:03:36.890Z,99.90
2018-10-09T04:06:05.441Z,99.90
2018-10-09T04:08:33.994Z,99.90
2018-10-09T04:11:02.567Z,99.90
2018-10-09T04:13:31.155Z,99.90
2018-10-09T04:15:59.681Z,99.90
2018-10-09T04:18:28.200Z,99.90
2018-10-09T04:20:56.748Z,99.90
2018-10-09T04:23:25.326Z,99.90
2018-10-09T04:25:53.852Z,99.90
2018-10-09T04:28:22.382Z,99.90
2018-10-09T04:30:50.912Z,99.90
2018-10-09T04:33:19.487Z,99.90
2018-10-09T04:35:47.995Z,99.90
2018-10-09T04:38:17.325Z,99.90
2018-10-09T04:40:45.859Z,99.90
2018-10-09T04:43:14.400Z,99.90
2018-10-09T04:45:43.066Z,99.90
2018-10-09T04:48:11.961Z,99.90
2018-10-09T04:50:40.492Z,99.90
2018-10-09T04:53:09.084Z,99.90
2018-10-09T04:55:37.573Z,99.90
2018-10-09T04:58:06.155Z,99.90
2018-10-09T05:00:34.911Z,99.90
2018-10-09T05:03:03.457Z,99.90
2018-10-09T05:05:31.991Z,99.90
2018-10-09T05:08:00.516Z,99.90
2018-10-09T05:10:29.057Z,99.90
2018-10-09T05:12:57.577Z,99.90
2018-10-09T05:15:26.084Z,99.90
2018-10-09T05:17:54.691Z,99.90
2018-10-09T05:20:23.160Z,99.90
2018-10-09T05:22:51.916Z,99.90
2018-10-09T05:25:20.508Z,99.90
2018-10-09T05:27:49.019Z,99.90
2018-10-09T05:30:17.534Z,99.90
2018-10-09T05:32:46.051Z,99.90
2018-10-09T05:35:14.597Z,99.90
2018-10-09T05:37:43.182Z,99.90
2018-10-09T05:40:11.986Z,99.90
2018-10-09T05:42:40.523Z,99.90
2018-10-09T05:45:09.397Z,99.90
2018-10-09T05:47:38.053Z,99.90
2018-10-09T05:50:07.937Z,99.90
2018-10-09T05:52:36.813Z,99.90
2018-10-09T05:55:05.468Z,99.90
2018-10-09T05:57:33.988Z,99.90
2018-10-09T06:00:02.574Z,99.90
2018-10-09T06:02:31.121Z,99.90
2018-10-09T06:04:59.662Z,99.90
2018-10-09T06:07:28.192Z,99.90
2018-10-09T06:09:56.760Z,99.90
2018-10-09T06:12:25.341Z,99.90
2018-10-09T06:14:53.940Z,99.90
2018-10-09T06:17:22.478Z,99.90
2018-10-09T06:19:51.024Z,99.90
2018-10-09T06:22:19.621Z,99.90
2018-10-09T06:24:48.168Z,99.90
2018-10-09T06:27:16.734Z,99.90
2018-10-09T06:29:45.261Z,99.90
2018-10-09T06:32:13.831Z,99.90
2018-10-09T06:34:42.377Z,99.90
2018-10-09T06:37:11.004Z,99.90
2018-10-09T06:39:39.501Z,99.90
2018-10-09T06:42:08.074Z,99.90
2018-10-09T06:44:36.735Z,99.90
2018-10-09T06:47:05.277Z,99.90
2018-10-09T06:49:34.006Z,99.90
2018-10-09T06:52:02.607Z,99.90
2018-10-09T06:54:31.315Z,99.90
2018-10-09T06:57:00.202Z,99.90
2018-10-09T06:59:28.806Z,99.90
2018-10-09T07:01:57.385Z,99.90
2018-10-09T07:04:26.225Z,99.90
2018-10-09T07:06:54.934Z,99.90
2018-10-09T07:09:23.533Z,99.90
2018-10-09T07:11:52.106Z,99.90
2018-10-09T07:14:20.661Z,99.90
2018-10-09T07:16:49.212Z,99.90
2018-10-09T07:19:18.350Z,99.90
2018-10-09T07:21:46.886Z,99.90
2018-10-09T07:24:15.941Z,99.90
2018-10-09T07:26:44.664Z,99.90
2018-10-09T07:29:13.192Z,99.90
2018-10-09T07:31:41.719Z,99.90
2018-10-09T07:34:10.365Z,99.90
2018-10-09T07:36:38.901Z,99.90
2018-10-09T07:39:10.805Z,99.90
2018-10-09T07:41:39.347Z,99.90
2018-10-09T07:44:08.120Z,99.90
2018-10-09T07:46:36.673Z,99.90
2018-10-09T07:49:05.223Z,99.90
2018-10-09T07:51:33.785Z,99.90
2018-10-09T07:54:03.269Z,99.90
2018-10-09T07:56:31.802Z,99.90
2018-10-09T07:59:00.350Z,99.90
2018-10-09T08:01:29.591Z,99.90
2018-10-09T08:03:58.173Z,99.90
2018-10-09T08:06:26.813Z,99.90
2018-10-09T08:08:55.356Z,99.90
2018-10-09T08:11:23.968Z,99.90
2018-10-09T08:13:52.528Z,99.90
2018-10-09T08:16:21.101Z,99.90
2018-10-09T08:18:50.176Z,99.90
2018-10-09T08:21:19.035Z,99.90
2018-10-09T08:23:48.482Z,99.90
2018-10-09T08:26:17.169Z,99.90
2018-10-09T08:28:49.413Z,99.90
2018-10-09T08:31:21.590Z,99.90
2018-10-09T08:33:50.583Z,99.90
2018-10-09T08:36:19.170Z,99.90
2018-10-09T08:38:48.673Z,99.90
2018-10-09T08:41:20.326Z,99.90
2018-10-09T08:43:48.842Z,99.90
2018-10-09T08:46:17.516Z,99.90
2018-10-09T08:48:46.912Z,99.90
2018-10-09T08:51:16.453Z,99.90
2018-10-09T08:53:45.439Z,99.90
2018-10-09T08:56:14.019Z,99.90
2018-10-09T08:58:43.383Z,99.90
2018-10-09T09:01:11.940Z,99.90
2018-10-09T09:03:40.537Z,99.90
2018-10-09T09:06:09.021Z,99.90
2018-10-09T09:08:37.538Z,99.90
2018-10-09T09:11:06.817Z,99.90
2018-10-09T09:13:35.748Z,99.90
2018-10-09T09:16:05.344Z,99.90
2018-10-09T09:18:34.109Z,99.90
2018-10-09T09:21:03.431Z,99.90
2018-10-09T09:23:32.865Z,99.90
2018-10-09T09:26:06.416Z,99.90
2018-10-09T09:28:35.333Z,99.90
2018-10-09T09:31:04.197Z,99.90
2018-10-09T09:33:33.001Z,99.90
2018-10-09T09:36:03.077Z,99.90
2018-10-09T09:38:31.653Z,99.90
2018-10-09T09:41:00.480Z,99.90
2018-10-09T09:43:29.748Z,99.90
2018-10-09T09:46:01.646Z,99.90
2018-10-09T09:48:30.223Z,99.90
2018-10-09T09:50:58.872Z,99.90
2018-10-09T09:53:27.703Z,99.90
2018-10-09T09:56:01.310Z,99.90
2018-10-09T09:58:30.199Z,99.90
2018-10-09T10:01:02.921Z,99.90
2018-10-09T10:03:32.280Z,99.90
2018-10-09T10:06:01.943Z,99.90
2018-10-09T10:08:30.551Z,99.90
2018-10-09T10:10:59.105Z,99.90
2018-10-09T10:13:27.666Z,99.90
2018-10-09T10:15:56.341Z,99.90
2018-10-09T10:18:24.836Z,99.90
2018-10-09T10:20:53.394Z,99.90
2018-10-09T10:23:22.498Z,99.90
2018-10-09T10:25:51.057Z,99.90
2018-10-09T10:28:20.294Z,99.90
2018-10-09T10:30:51.342Z,99.90
2018-10-09T10:33:19.874Z,99.90
2018-10-09T10:35:48.658Z,99.90
2018-10-09T10:38:17.144Z,99.90
2018-10-09T10:40:45.734Z,99.90
2018-10-09T10:43:14.338Z,99.90
2018-10-09T10:45:43.308Z,99.90
2018-10-09T10:48:11.901Z,99.90
2018-10-09T10:50:40.473Z,99.90
2018-10-09T10:53:09.031Z,99.90
2018-10-09T10:55:37.651Z,99.90
2018-10-09T10:58:06.551Z,99.90
2018-10-09T11:00:35.157Z,99.90
2018-10-09T11:03:03.700Z,99.90
2018-10-09T11:05:32.274Z,99.90
2018-10-09T11:08:00.925Z,99.90
2018-10-09T11:10:29.419Z,99.90
2018-10-09T11:12:58.010Z,99.90
2018-10-09T11:15:26.691Z,99.90
2018-10-09T11:17:55.244Z,99.90
2018-10-09T11:20:23.786Z,99.90
2018-10-09T11:22:52.421Z,99.90
2018-10-09T11:25:21.037Z,99.90
2018-10-09T11:27:49.589Z,99.90
2018-10-09T11:30:18.158Z,99.90
2018-10-09T11:32:46.763Z,99.70
2018-10-09T11:35:15.320Z,97.70
2018-10-09T11:37:44.076Z,96.70
2018-10-09T11:40:12.653Z,93.70
2018-10-09T11:42:41.269Z,93.30
2018-10-09T11:45:10.174Z,93.40
2018-10-09T11:47:38.721Z,91.60
2018-10-09T11:50:08.366Z,90.70
2018-10-09T11:52:36.964Z,85.90
2018-10-09T11:55:05.610Z,89.60
2018-10-09T11:57:34.206Z,85.10
2018-10-09T12:00:02.879Z,83.10
2018-10-09T12:02:31.522Z,79.50
2018-10-09T12:05:00.247Z,80.40
2018-10-09T12:07:29.147Z,82.60
2018-10-09T12:09:58.731Z,79.80
2018-10-09T12:12:28.251Z,82.00
2018-10-09T12:14:56.837Z,81.80
2018-10-09T12:17:25.657Z,80.70
2018-10-09T12:19:54.406Z,83.90
2018-10-09T12:22:23.398Z,82.10
2018-10-09T12:24:51.944Z,82.70
2018-10-09T12:27:20.529Z,80.80
2018-10-09T12:29:49.100Z,79.50
2018-10-09T12:32:17.685Z,81.60
2018-10-09T12:34:46.225Z,84.30
2018-10-09T12:37:14.772Z,83.00
2018-10-09T12:39:43.373Z,81.70
2018-10-09T12:42:11.903Z,80.70
2018-10-09T12:44:40.614Z,82.70
2018-10-09T12:47:09.157Z,85.10
2018-10-09T12:49:37.754Z,80.80
2018-10-09T12:52:06.374Z,85.00
2018-10-09T12:54:34.909Z,84.90
2018-10-09T12:57:03.501Z,83.60
2018-10-09T12:59:32.074Z,86.70
2018-10-09T13:02:00.638Z,89.30
2018-10-09T13:04:29.283Z,87.90
2018-10-09T13:06:57.805Z,90.20
2018-10-09T13:09:26.698Z,91.80
2018-10-09T13:11:55.200Z,92.90
2018-10-09T13:14:23.735Z,91.30
2018-10-09T13:16:52.327Z,91.90
2018-10-09T13:19:20.970Z,91.60
2018-10-09T13:21:49.883Z,93.40
2018-10-09T13:24:18.133Z,93.70
2018-10-09T13:26:46.698Z,93.50
2018-10-09T13:29:15.303Z,92.90
2018-10-09T13:31:43.854Z,92.50
2018-10-09T13:34:12.529Z,91.50
2018-10-09T13:36:41.573Z,93.50
2018-10-09T13:39:10.120Z,92.40
2018-10-09T13:41:38.686Z,94.10
2018-10-09T13:44:07.765Z,93.90
2018-10-09T13:46:38.161Z,95.40
2018-10-09T13:49:07.252Z,93.80
2018-10-09T13:51:35.893Z,92.90
2018-10-09T13:54:04.490Z,94.60
2018-10-09T13:56:33.109Z,95.90
2018-10-09T13:59:02.692Z,95.30
2018-10-09T14:01:31.245Z,94.50
2018-10-09T14:04:00.599Z,93.50
2018-10-09T14:06:29.194Z,92.30
2018-10-09T14:08:57.731Z,93.40
2018-10-09T14:11:26.394Z,93.10
2018-10-09T14:13:54.958Z,93.20
2018-10-09T14:16:23.754Z,94.00
2018-10-09T14:18:52.162Z,93.10
2018-10-09T14:21:20.763Z,93.00
2018-10-09T14:23:49.355Z,92.90
2018-10-09T14:26:17.986Z,92.30
2018-10-09T14:28:46.522Z,93.10
2018-10-09T14:31:15.133Z,93.90
2018-10-09T14:33:43.701Z,93.20
2018-10-09T14:36:12.405Z,93.50
2018-10-09T14:38:41.025Z,95.30
2018-10-09T14:41:09.542Z,96.10
2018-10-09T14:43:38.138Z,96.30
2018-10-09T14:46:06.729Z,95.90
2018-10-09T14:48:35.377Z,94.60
2018-10-09T14:51:03.941Z,92.70
2018-10-09T14:53:32.605Z,92.80
2018-10-09T14:56:01.262Z,92.30
2018-10-09T14:58:29.832Z,93.30
2018-10-09T15:00:58.395Z,95.30
2018-10-09T15:03:27.050Z,96.90
2018-10-09T15:05:55.557Z,97.20
2018-10-09T15:08:24.228Z,98.60
2018-10-09T15:10:52.988Z,96.80
2018-10-09T15:13:21.554Z,98.50
2018-10-09T15:15:50.256Z,99.50
2018-10-09T15:18:18.834Z,99.50
2018-10-09T15:20:47.465Z,97.10
2018-10-09T15:23:16.008Z,97.90
2018-10-09T15:25:44.529Z,94.60
2018-10-09T15:28:13.116Z,94.70
2018-10-09T15:30:41.833Z,97.00
2018-10-09T15:33:10.417Z,98.20
2018-10-09T15:35:39.037Z,99.90
2018-10-09T15:38:07.578Z,98.80
2018-10-09T15:40:36.107Z,96.90
2018-10-09T15:43:04.743Z,96.90
2018-10-09T15:45:33.290Z,99.90
2018-10-09T15:48:01.813Z,99.90
2018-10-09T15:50:30.386Z,99.90
2018-10-09T15:52:58.938Z,99.90
2018-10-09T15:55:27.591Z,99.00
2018-10-09T15:57:56.310Z,98.60
2018-10-09T16:00:24.840Z,99.20
2018-10-09T16:02:53.422Z,98.80
2018-10-09T16:05:22.008Z,99.90
2018-10-09T16:07:50.530Z,99.90
2018-10-09T16:10:19.085Z,99.90
2018-10-09T16:12:47.658Z,99.90
2018-10-09T16:15:17.717Z,99.90
2018-10-09T16:17:46.269Z,99.90
2018-10-09T16:20:14.795Z,99.90
2018-10-09T16:22:43.364Z,99.90
2018-10-09T16:25:12.010Z,99.90
2018-10-09T16:27:40.525Z,99.90
2018-10-09T16:30:09.069Z,99.90
2018-10-09T16:32:37.910Z,99.90
2018-10-09T16:35:06.602Z,99.90
2018-10-09T16:37:35.263Z,99.90
2018-10-09T16:40:04.021Z,99.90
2018-10-09T16:42:32.569Z,99.90
2018-10-09T16:45:01.721Z,99.90
2018-10-09T16:47:30.427Z,99.90
2018-10-09T16:49:58.885Z,99.90
2018-10-09T16:52:27.468Z,99.90
2018-10-09T16:54:56.047Z,99.90
2018-10-09T16:57:24.611Z,99.90
2018-10-09T16:59:53.161Z,99.90
2018-10-09T17:02:21.695Z,99.90
2018-10-09T17:04:50.247Z,99.90
2018-10-09T17:07:19.183Z,99.90
2018-10-09T17:09:47.720Z,99.90
2018-10-09T17:12:16.266Z,99.90
2018-10-09T17:14:44.845Z,99.90
2018-10-09T17:17:13.459Z,99.90
2018-10-09T17:19:42.107Z,99.90
2018-10-09T17:22:10.668Z,99.90
2018-10-09T17:24:39.236Z,99.90
2018-10-09T17:27:07.750Z,99.90
2018-10-09T17:29:36.309Z,99.90
2018-10-09T17:32:04.870Z,99.90
2018-10-09T17:34:33.430Z,99.90
2018-10-09T17:37:02.129Z,99.90
2018-10-09T17:39:31.021Z,99.90
2018-10-09T17:41:59.608Z,99.90
2018-10-09T17:44:28.136Z,99.90
2018-10-09T17:46:56.672Z,99.90
2018-10-09T17:49:25.233Z,99.90
2018-10-09T17:51:54.054Z,99.90
2018-10-09T17:54:22.643Z,99.90
2018-10-09T17:56:51.195Z,99.90
2018-10-09T17:59:19.709Z,99.90
2018-10-09T18:01:48.280Z,99.90
2018-10-09T18:04:16.829Z,99.90
2018-10-09T18:06:45.410Z,99.90
2018-10-09T18:09:13.976Z,99.90
2018-10-09T18:11:42.804Z,99.90
2018-10-09T18:14:12.134Z,99.90
2018-10-09T18:16:40.758Z,99.90
2018-10-09T18:19:09.310Z,99.90
2018-10-09T18:21:38.087Z,99.90
2018-10-09T18:24:06.650Z,99.90
2018-10-09T18:26:35.212Z,99.90
2018-10-09T18:29:03.770Z,99.90
2018-10-09T18:31:32.431Z,99.90
2018-10-09T18:34:01.041Z,99.90
2018-10-09T18:36:29.630Z,99.90
2018-10-09T18:38:58.237Z,99.90
2018-10-09T18:41:26.958Z,99.90
2018-10-09T18:43:56.031Z,99.90
2018-10-09T18:46:24.617Z,99.90
2018-10-09T18:48:53.157Z,99.90
2018-10-09T18:51:21.888Z,99.90
2018-10-09T18:53:50.494Z,99.90
2018-10-09T18:56:19.378Z,99.90
2018-10-09T18:58:48.301Z,99.90
2018-10-09T19:01:16.851Z,99.90
2018-10-09T19:03:45.454Z,99.90
2018-10-09T19:06:14.205Z,99.90
2018-10-09T19:08:42.809Z,99.90
2018-10-09T19:11:11.444Z,99.90
2018-10-09T19:13:40.208Z,99.90
2018-10-09T19:16:08.885Z,99.90
2018-10-09T19:18:38.037Z,99.90
2018-10-09T19:21:06.750Z,99.90
2018-10-09T19:23:35.478Z,99.90
2018-10-09T19:26:04.264Z,99.90
2018-10-09T19:28:32.902Z,99.90
2018-10-09T19:31:01.573Z,99.90
2018-10-09T19:33:31.217Z,99.90
2018-10-09T19:35:59.908Z,99.90
2018-10-09T19:38:28.526Z,99.90
2018-10-09T19:40:57.417Z,99.90
2018-10-09T19:43:26.342Z,99.90
2018-10-09T19:45:54.900Z,99.90
2018-10-09T19:48:23.456Z,99.90
2018-10-09T19:50:52.072Z,99.90
2018-10-09T19:53:20.540Z,99.90
2018-10-09T19:55:49.061Z,99.90
2018-10-09T19:58:17.586Z,99.90
2018-10-09T20:00:46.167Z,99.90
2018-10-09T20:03:14.701Z,99.90
2018-10-09T20:05:43.289Z,99.90
2018-10-09T20:08:11.911Z,99.90
2018-10-09T20:10:40.446Z,99.90
2018-10-09T20:13:08.996Z,99.90
2018-10-09T20:15:37.697Z,99.90
2018-10-09T20:18:06.534Z,99.90
2018-10-09T20:20:35.058Z,99.90
2018-10-09T20:23:03.603Z,99.90
2018-10-09T20:25:32.144Z,99.90
2018-10-09T20:28:00.675Z,99.90
2018-10-09T20:30:29.217Z,99.90
2018-10-09T20:32:57.774Z,99.90
2018-10-09T20:35:26.318Z,99.90
2018-10-09T20:37:54.895Z,99.90
2018-10-09T20:40:23.429Z,99.90
2018-10-09T20:42:51.984Z,99.90
2018-10-09T20:45:20.502Z,99.90
2018-10-09T20:47:49.343Z,99.90
2018-10-09T20:50:17.890Z,99.90
2018-10-09T20:52:46.397Z,99.90
2018-10-09T20:55:14.960Z,99.90
2018-10-09T20:57:43.475Z,99.90
2018-10-09T21:00:12.043Z,99.90
2018-10-09T21:02:40.573Z,99.90
2018-10-09T21:05:09.092Z,99.90
2018-10-09T21:07:37.614Z,99.90
2018-10-09T21:10:06.150Z,99.90
2018-10-09T21:12:34.721Z,99.90
2018-10-09T21:15:03.230Z,99.90
2018-10-09T21:17:31.886Z,99.90
2018-10-09T21:20:00.421Z,99.90
2018-10-09T21:22:28.965Z,99.90
2018-10-09T21:24:57.510Z,99.90
2018-10-09T21:27:26.299Z,99.90
2018-10-09T21:29:54.881Z,99.90
2018-10-09T21:32:23.493Z,99.90
2018-10-09T21:34:52.018Z,99.90
2018-10-09T21:37:20.558Z,99.90
2018-10-09T21:39:49.074Z,99.90
2018-10-09T21:42:17.600Z,99.90
2018-10-09T21:44:46.158Z,99.90
2018-10-09T21:47:14.697Z,99.90
2018-10-09T21:49:43.244Z,99.90
2018-10-09T21:52:11.783Z,99.90
2018-10-09T21:54:40.311Z,99.90
2018-10-09T21:57:08.854Z,99.90
2018-10-09T21:59:37.575Z,99.90
2018-10-09T22:02:06.617Z,99.90
2018-10-09T22:04:35.161Z,99.90
2018-10-09T22:07:03.773Z,99.90
2018-10-09T22:09:32.360Z,99.90
2018-10-09T22:12:00.916Z,99.90
2018-10-09T22:14:29.455Z,99.90
2018-10-09T22:16:58.026Z,99.90
2018-10-09T22:19:26.599Z,99.90
2018-10-09T22:21:55.164Z,99.90
2018-10-09T22:24:23.819Z,99.90
2018-10-09T22:26:52.398Z,99.90
2018-10-09T22:29:20.929Z,99.90
2018-10-09T22:31:49.470Z,99.90
2018-10-09T22:34:18.010Z,99.90
2018-10-09T22:36:46.537Z,99.90
2018-10-09T22:39:15.099Z,99.90
2018-10-09T22:41:43.621Z,99.90
2018-10-09T22:44:12.184Z,99.90
2018-10-09T22:46:40.757Z,99.90
2018-10-09T22:49:09.283Z,99.90
2018-10-09T22:51:37.826Z,99.90
2018-10-09T22:54:06.386Z,99.90
2018-10-09T22:56:34.913Z,99.90
2018-10-09T22:59:03.649Z,99.90
2018-10-09T23:01:32.210Z,99.90
2018-10-09T23:04:01.881Z,99.90
2018-10-09T23:06:30.410Z,99.90
2018-10-09T23:08:58.953Z,99.90
2018-10-09T23:11:27.506Z,99.90
2018-10-09T23:13:56.036Z,99.90
2018-10-09T23:16:24.591Z,99.90
2018-10-09T23:18:53.208Z,99.90
2018-10-09T23:21:21.714Z,99.90
2018-10-09T23:23:50.289Z,99.90
2018-10-09T23:26:18.873Z,99.90
2018-10-09T23:28:47.445Z,99.90
2018-10-09T23:31:15.974Z,99.90
2018-10-09T23:33:44.539Z,99.90
2018-10-09T23:36:13.078Z,99.90
2018-10-09T23:38:41.646Z,99.90
2018-10-09T23:41:10.257Z,99.90
2018-10-09T23:43:38.789Z,99.90
2018-10-09T23:46:07.316Z,99.90
2018-10-09T23:48:35.889Z,99.90
2018-10-09T23:51:04.426Z,99.90
2018-10-09T23:53:32.971Z,99.90
2018-10-09T23:56:01.523Z,99.90
2018-10-09T23:58:30.103Z,99.90
